Time;durP1;ratioP1;P1;durP2;ratioP2;P2;SDS_P1;SDS_P2;PMS_P1;PMS_P2;Temp;Humidity;BMP_temperature;BMP_pressure;BME280_temperature;BME280_humidity;BME280_pressure;Samples;Min_cycle;Max_cycle;Signal;HPM_P1;HPM_P2
2023/12/20 00:00:20;;;;;;;;;;;;;;;;;;4995046;28;59430;-75
2023/12/20 00:02:46;;;;;;;;;;;;;;;;;;4995432;28;58937;-80
2023/12/20 00:05:11;;;;;;;;;;;;;;;;;;4994351;28;60209;-75
2023/12/20 00:07:36;;;;;;;;;;;;;;;;;;4993970;28;59005;-76
2023/12/20 00:10:02;;;;;;;;;;;;;;;;;;4994458;28;59194;-77
2023/12/20 00:12:27;;;;;;;;;;;;;;;;;;4994213;28;59803;-76
2023/12/20 00:14:52;;;;;;;;;;;;;;;;;;4994252;28;59424;-76
2023/12/20 00:17:17;;;;;;;;;;;;;;;;;;4993776;28;59144;-76
2023/12/20 00:19:42;;;;;;;;;;;;;;;;;;4994465;28;59557;-76
2023/12/20 00:22:07;;;;;;;;;;;;;;;;;;4993320;28;58907;-76
2023/12/20 00:24:33;;;;;;;;;;;;;;;;;;4995025;28;58125;-76
2023/12/20 00:26:58;;;;;;;;;;;;;;;;;;4994325;28;59357;-76
2023/12/20 00:29:23;;;;;;;;;;;;;;;;;;4994083;28;58826;-76
2023/12/20 00:31:48;;;;;;;;;;;;;;;;;;4993762;28;60399;-76
2023/12/20 00:34:13;;;;;;;;;;;;;;;;;;5008791;28;59609;-76
2023/12/20 00:36:38;;;;;;;;;;;;;;;;;;4994703;28;58879;-76
2023/12/20 00:39:04;;;;;;;;;;;;;;;;;;4994966;28;60293;-76
2023/12/20 00:41:29;;;;;;;;;;;;;;;;;;4993579;28;59769;-76
2023/12/20 00:43:54;;;;;;;;;;;;;;;;;;4994532;28;58708;-76
2023/12/20 00:46:19;;;;;;;;;;;;;;;;;;4993889;28;61198;-77
2023/12/20 00:48:45;;;;;;;;;;;;;;;;;;4994364;28;58923;-76
2023/12/20 00:51:10;;;;;;;;;;;;;;;;;;4994100;28;60453;-76
2023/12/20 00:53:35;;;;;;;;;;;;;;;;;;4993785;28;58905;-76
2023/12/20 00:56:01;;;;;;;;;;;;;;;;;;4993792;28;58880;-77
2023/12/20 00:58:27;;;;;;;;;;;;;;;;;;4993726;28;60472;-76
2023/12/20 01:00:53;;;;;;;;;;;;;;;;;;4992930;28;59239;-76
2023/12/20 01:03:18;;;;;;;;;;;;;;;;;;4993527;28;58874;-77
2023/12/20 01:05:43;;;;;;;;;;;;;;;;;;4994687;28;59371;-76
2023/12/20 01:08:08;;;;;;;;;;;;;;;;;;4993525;28;59094;-77
2023/12/20 01:10:33;;;;;;;;;;;;;;;;;;4993524;28;62164;-78
2023/12/20 01:12:58;;;;;;;;;;;;;;;;;;4993000;28;59496;-78
2023/12/20 01:15:23;;;;;;;;;;;;;;;;;;4993473;28;58521;-78
2023/12/20 01:17:49;;;;;;;;;;;;;;;;;;4994343;28;60333;-76
2023/12/20 01:20:14;;;;;;;;;;;;;;;;;;4993132;28;59007;-76
2023/12/20 01:22:39;;;;;;;;;;;;;;;;;;4993719;28;58766;-76
2023/12/20 01:25:04;;;;;;;;;;;;;;;;;;4993580;28;60664;-76
2023/12/20 01:27:30;;;;;;;;;;;;;;;;;;4993558;28;59013;-76
2023/12/20 01:29:56;;;;;;;;;;;;;;;;;;4997059;28;60237;-76
2023/12/20 01:32:21;;;;;;;;;;;;;;;;;;4995876;28;59329;-77
2023/12/20 01:34:46;;;;;;;;;;;;;;;;;;4996735;28;58919;-78
2023/12/20 01:37:11;;;;;;;;;;;;;;;;;;4996602;28;60317;-76
2023/12/20 01:39:36;;;;;;;;;;;;;;;;;;4995975;28;59365;-77
2023/12/20 01:42:02;;;;;;;;;;;;;;;;;;4997461;28;59013;-76
2023/12/20 01:44:27;;;;;;;;;;;;;;;;;;4996648;28;60109;-77
2023/12/20 01:46:52;;;;;;;;;;;;;;;;;;4995585;28;59096;-77
2023/12/20 01:49:17;;;;;;;;;;;;;;;;;;4997450;28;59078;-76
2023/12/20 01:51:42;;;;;;;;;;;;;;;;;;4995671;28;58885;-76
2023/12/20 01:54:07;;;;;;;;;;;;;;;;;;4997517;28;59154;-76
2023/12/20 01:56:32;;;;;;;;;;;;;;;;;;4996809;28;60301;-76
2023/12/20 01:58:57;;;;;;;;;;;;;;;;;;4996020;28;59433;-76
2023/12/20 02:01:22;;;;;;;;;;;;;;;;;;4996656;28;58836;-77
2023/12/20 02:03:47;;;;;;;;;;;;;;;;;;4996433;28;60243;-77
2023/12/20 02:06:13;;;;;;;;;;;;;;;;;;4995918;28;78762;-76
2023/12/20 02:08:38;;;;;;;;;;;;;;;;;;4997239;28;58943;-76
2023/12/20 02:11:03;;;;;;;;;;;;;;;;;;4996177;28;60291;-77
2023/12/20 02:13:28;;;;;;;;;;;;;;;;;;4996498;28;58947;-76
2023/12/20 02:15:53;;;;;;;;;;;;;;;;;;4996615;28;59659;-78
2023/12/20 02:18:18;;;;;;;;;;;;;;;;;;4995729;28;59254;-77
2023/12/20 02:20:43;;;;;;;;;;;;;;;;;;4997232;28;58925;-76
2023/12/20 02:23:09;;;;;;;;;;;;;;;;;;4996357;28;60306;-76
2023/12/20 02:25:34;;;;;;;;;;;;;;;;;;4995664;28;59275;-76
2023/12/20 02:27:59;;;;;;;;;;;;;;;;;;4996647;28;58919;-76
2023/12/20 02:30:24;;;;;;;;;;;;;;;;;;4995675;28;60327;-76
2023/12/20 02:32:49;;;;;;;;;;;;;;;;;;4996978;28;59046;-77
2023/12/20 02:35:14;;;;;;;;;;;;;;;;;;4996327;28;59791;-76
2023/12/20 02:37:39;;;;;;;;;;;;;;;;;;4995618;28;59294;-76
2023/12/20 02:40:04;;;;;;;;;;;;;;;;;;4995685;28;58947;-77
2023/12/20 02:42:29;;;;;;;;;;;;;;;;;;4995887;28;60251;-77
2023/12/20 02:44:54;;;;;;;;;;;;;;;;;;4995869;28;78434;-77
2023/12/20 02:47:19;;;;;;;;;;;;;;;;;;4995870;28;58856;-76
2023/12/20 02:49:44;;;;;;;;;;;;;;;;;;4996138;28;59355;-76
2023/12/20 02:52:10;;;;;;;;;;;;;;;;;;4995105;28;58865;-76
2023/12/20 02:54:35;;;;;;;;;;;;;;;;;;4996153;28;58835;-76
2023/12/20 02:57:00;;;;;;;;;;;;;;;;;;4995685;28;58942;-77
2023/12/20 02:59:26;;;;;;;;;;;;;;;;;;4995447;28;58886;-76
2023/12/20 03:01:51;;;;;;;;;;;;;;;;;;4995370;28;60233;-76
2023/12/20 03:04:16;;;;;;;;;;;;;;;;;;4994706;28;59799;-76
2023/12/20 03:06:41;;;;;;;;;;;;;;;;;;4995546;28;59043;-77
2023/12/20 03:09:06;;;;;;;;;;;;;;;;;;4996270;28;60160;-76
2023/12/20 03:11:31;;;;;;;;;;;;;;;;;;4994751;28;59301;-76
2023/12/20 03:13:56;;;;;;;;;;;;;;;;;;4996664;28;58877;-76
2023/12/20 03:16:21;;;;;;;;;;;;;;;;;;4994358;28;59922;-76
2023/12/20 03:18:47;;;;;;;;;;;;;;;;;;4995454;28;59224;-76
2023/12/20 03:21:12;;;;;;;;;;;;;;;;;;4995294;28;60334;-77
2023/12/20 03:23:37;;;;;;;;;;;;;;;;;;4995095;28;59824;-76
2023/12/20 03:26:02;;;;;;;;;;;;;;;;;;4995318;28;59247;-77
2023/12/20 03:28:27;;;;;;;;;;;;;;;;;;4995076;28;60074;-77
2023/12/20 03:30:52;;;;;;;;;;;;;;;;;;4994260;28;59159;-77
2023/12/20 03:33:17;;;;;;;;;;;;;;;;;;4994922;28;58856;-78
2023/12/20 03:35:42;;;;;;;;;;;;;;;;;;4995924;28;60272;-78
2023/12/20 03:38:07;;;;;;;;;;;;;;;;;;4995307;28;59110;-76
2023/12/20 03:40:32;;;;;;;;;;;;;;;;;;4994957;28;60342;-77
2023/12/20 03:42:57;;;;;;;;;;;;;;;;;;4994080;28;59449;-77
2023/12/20 03:45:23;;;;;;;;;;;;;;;;;;4994702;28;58967;-77
2023/12/20 03:47:48;;;;;;;;;;;;;;;;;;4995511;28;61132;-76
2023/12/20 03:50:13;;;;;;;;;;;;;;;;;;4994090;28;59230;-76
2023/12/20 03:52:38;;;;;;;;;;;;;;;;;;4994058;28;59199;-77
2023/12/20 03:55:03;;;;;;;;;;;;;;;;;;4994677;28;60552;-76
2023/12/20 03:57:28;;;;;;;;;;;;;;;;;;4994746;28;59181;-77
2023/12/20 03:59:53;;;;;;;;;;;;;;;;;;4995498;28;60573;-77
2023/12/20 04:02:18;;;;;;;;;;;;;;;;;;4994342;28;59191;-76
2023/12/20 04:04:44;;;;;;;;;;;;;;;;;;4994555;28;58820;-76
2023/12/20 04:07:09;;;;;;;;;;;;;;;;;;4994837;28;60287;-77
2023/12/20 04:09:34;;;;;;;;;;;;;;;;;;4994011;28;59247;-76
2023/12/20 04:11:59;;;;;;;;;;;;;;;;;;4995189;28;58867;-77
2023/12/20 04:14:24;;;;;;;;;;;;;;;;;;4994533;28;60240;-77
2023/12/20 04:16:49;;;;;;;;;;;;;;;;;;4993793;28;59332;-77
2023/12/20 04:19:14;;;;;;;;;;;;;;;;;;4995219;28;58913;-76
2023/12/20 04:21:40;;;;;;;;;;;;;;;;;;4993827;28;58865;-77
2023/12/20 04:24:05;;;;;;;;;;;;;;;;;;5010571;28;58911;-76
2023/12/20 04:26:30;;;;;;;;;;;;;;;;;;4994288;28;61136;-77
2023/12/20 04:28:55;;;;;;;;;;;;;;;;;;4993217;28;59063;-77
2023/12/20 04:31:20;;;;;;;;;;;;;;;;;;4994153;28;58865;-76
2023/12/20 04:33:45;;;;;;;;;;;;;;;;;;4994347;28;59135;-76
2023/12/20 04:36:10;;;;;;;;;;;;;;;;;;4993963;28;59084;-78
2023/12/20 04:38:35;;;;;;;;;;;;;;;;;;4995099;28;58867;-77
2023/12/20 04:41:00;;;;;;;;;;;;;;;;;;4994225;28;61131;-78
2023/12/20 04:43:25;;;;;;;;;;;;;;;;;;4994590;28;59245;-78
2023/12/20 04:45:50;;;;;;;;;;;;;;;;;;4994177;28;60629;-78
2023/12/20 04:48:15;;;;;;;;;;;;;;;;;;4993530;28;59278;-76
2023/12/20 04:50:41;;;;;;;;;;;;;;;;;;4994692;28;58881;-76
2023/12/20 04:53:06;;;;;;;;;;;;;;;;;;4993850;28;60269;-77
2023/12/20 04:55:31;;;;;;;;;;;;;;;;;;4993156;28;59401;-76
2023/12/20 04:57:56;;;;;;;;;;;;;;;;;;4993942;28;59191;-77
2023/12/20 05:00:21;;;;;;;;;;;;;;;;;;4993732;28;60222;-77
2023/12/20 05:02:46;;;;;;;;;;;;;;;;;;4996219;28;58921;-76
2023/12/20 05:05:11;;;;;;;;;;;;;;;;;;4997603;28;61128;-77
2023/12/20 05:07:36;;;;;;;;;;;;;;;;;;4996523;28;59228;-76
2023/12/20 05:10:01;;;;;;;;;;;;;;;;;;4997587;28;59060;-76
2023/12/20 05:12:26;;;;;;;;;;;;;;;;;;4996826;28;59645;-76
2023/12/20 05:14:52;;;;;;;;;;;;;;;;;;5012614;28;59129;-76
2023/12/20 05:17:17;;;;;;;;;;;;;;;;;;4997505;28;58747;-77
2023/12/20 05:19:42;;;;;;;;;;;;;;;;;;5012096;28;61949;-76
2023/12/20 05:22:07;;;;;;;;;;;;;;;;;;4996895;28;59388;-76
2023/12/20 05:24:32;;;;;;;;;;;;;;;;;;4997040;28;60629;-77
2023/12/20 05:26:57;;;;;;;;;;;;;;;;;;4997438;28;59302;-77
2023/12/20 05:29:22;;;;;;;;;;;;;;;;;;4996697;28;58465;-76
2023/12/20 05:31:47;;;;;;;;;;;;;;;;;;4996718;28;60555;-77
2023/12/20 05:34:12;;;;;;;;;;;;;;;;;;4995976;28;58918;-76
2023/12/20 05:36:38;;;;;;;;;;;;;;;;;;4996699;28;58898;-78
2023/12/20 05:39:04;;;;;;;;;;;;;;;;;;4997644;28;60181;-78
2023/12/20 05:41:29;;;;;;;;;;;;;;;;;;4996099;28;59515;-76
2023/12/20 05:43:54;;;;;;;;;;;;;;;;;;4997754;28;59109;-77
2023/12/20 05:46:19;;;;;;;;;;;;;;;;;;4996392;28;59163;-76
2023/12/20 05:48:44;;;;;;;;;;;;;;;;;;4996920;28;59147;-78
2023/12/20 05:51:09;;;;;;;;;;;;;;;;;;4997129;28;59383;-75
2023/12/20 05:53:34;;;;;;;;;;;;;;;;;;4996816;28;59352;-78
2023/12/20 05:55:59;;;;;;;;;;;;;;;;;;4996681;28;59218;-82
2023/12/20 05:58:25;;;;;;;;;;;;;;;;;;4996517;28;59629;-80
2023/12/20 06:00:50;;;;;;;;;;;;;;;;;;4995731;28;58873;-80
2023/12/20 06:03:15;;;;;;;;;;;;;;;;;;4996663;28;58946;-79
2023/12/20 06:05:40;;;;;;;;;;;;;;;;;;4997321;28;60334;-79
2023/12/20 06:08:05;;;;;;;;;;;;;;;;;;4996982;28;76712;-79
2023/12/20 06:10:30;;;;;;;;;;;;;;;;;;4996211;28;60377;-79
2023/12/20 06:12:56;;;;;;;;;;;;;;;;;;4995566;28;59803;-79
2023/12/20 06:15:21;;;;;;;;;;;;;;;;;;4995386;28;58941;-79
2023/12/20 06:17:46;;;;;;;;;;;;;;;;;;4996985;28;61090;-79
2023/12/20 06:20:11;;;;;;;;;;;;;;;;;;4995345;28;58966;-79
2023/12/20 06:22:37;;;;;;;;;;;;;;;;;;4996040;28;58931;-79
2023/12/20 06:25:02;;;;;;;;;;;;;;;;;;4996074;28;59547;-80
2023/12/20 06:27:27;;;;;;;;;;;;;;;;;;4996124;28;59315;-79
2023/12/20 06:29:52;;;;;;;;;;;;;;;;;;4997009;28;60336;-79
2023/12/20 06:32:17;;;;;;;;;;;;;;;;;;4994805;28;59401;-79
2023/12/20 06:34:43;;;;;;;;;;;;;;;;;;4995727;28;59291;-79
2023/12/20 06:37:08;;;;;;;;;;;;;;;;;;4995781;28;60379;-79
2023/12/20 06:39:33;;;;;;;;;;;;;;;;;;4995004;28;58874;-79
2023/12/20 06:41:59;;;;;;;;;;;;;;;;;;4996640;28;59088;-79
2023/12/20 06:44:24;;;;;;;;;;;;;;;;;;4995916;28;59072;-79
2023/12/20 06:46:49;;;;;;;;;;;;;;;;;;4995098;28;59373;-79
2023/12/20 06:49:14;;;;;;;;;;;;;;;;;;4996544;28;58881;-80
2023/12/20 06:51:39;;;;;;;;;;;;;;;;;;4995173;28;58754;-79
2023/12/20 06:54:04;;;;;;;;;;;;;;;;;;4996496;28;58882;-79
2023/12/20 06:56:29;;;;;;;;;;;;;;;;;;4995847;28;59523;-79
2023/12/20 06:58:54;;;;;;;;;;;;;;;;;;4995240;28;58778;-79
2023/12/20 07:01:19;;;;;;;;;;;;;;;;;;4995710;28;58932;-79
2023/12/20 07:03:45;;;;;;;;;;;;;;;;;;4995541;28;60340;-79
2023/12/20 07:06:10;;;;;;;;;;;;;;;;;;4994935;28;59339;-79
2023/12/20 07:08:35;;;;;;;;;;;;;;;;;;4996951;28;58718;-80
2023/12/20 07:11:00;;;;;;;;;;;;;;;;;;4994434;28;59977;-80
2023/12/20 07:13:25;;;;;;;;;;;;;;;;;;4995352;28;58889;-79
2023/12/20 07:15:50;;;;;;;;;;;;;;;;;;4995469;28;60095;-80
2023/12/20 07:18:15;;;;;;;;;;;;;;;;;;5009763;28;60065;-79
2023/12/20 07:20:40;;;;;;;;;;;;;;;;;;4996411;28;58963;-80
2023/12/20 07:23:05;;;;;;;;;;;;;;;;;;4995411;28;61177;-79
2023/12/20 07:25:32;;;;;;;;;;;;;;;;;;4993694;28;59045;-79
2023/12/20 07:27:57;;;;;;;;;;;;;;;;;;4995162;28;59291;-80
2023/12/20 07:30:22;;;;;;;;;;;;;;;;;;4994908;28;60210;-79
2023/12/20 07:32:47;;;;;;;;;;;;;;;;;;4995957;28;58774;-78
2023/12/20 07:35:12;;;;;;;;;;;;;;;;;;4994766;28;59299;-78
2023/12/20 07:37:37;;;;;;;;;;;;;;;;;;4994375;28;59106;-81
2023/12/20 07:40:03;;;;;;;;;;;;;;;;;;4994781;28;58882;-79
2023/12/20 07:42:28;;;;;;;;;;;;;;;;;;4995195;28;60211;-81
2023/12/20 07:44:53;;;;;;;;;;;;;;;;;;4994725;28;58961;-81
2023/12/20 07:47:21;;;;;;;;;;;;;;;;;;4994808;28;58791;-79
2023/12/20 07:49:46;;;;;;;;;;;;;;;;;;4994847;28;60136;-81
2023/12/20 07:52:11;;;;;;;;;;;;;;;;;;4994930;28;59618;-79
2023/12/20 07:54:36;;;;;;;;;;;;;;;;;;4994720;28;59498;-79
2023/12/20 07:57:01;;;;;;;;;;;;;;;;;;4994889;28;59313;-79
2023/12/20 07:59:26;;;;;;;;;;;;;;;;;;4994673;28;58912;-79
2023/12/20 08:01:52;;;;;;;;;;;;;;;;;;4994847;28;59289;-78
2023/12/20 08:04:17;;;;;;;;;;;;;;;;;;4993909;28;58713;-78
2023/12/20 08:06:42;;;;;;;;;;;;;;;;;;4994822;28;59207;-79
2023/12/20 08:09:07;;;;;;;;;;;;;;;;;;4995905;28;60427;-80
2023/12/20 08:11:32;;;;;;;;;;;;;;;;;;4994234;28;58850;-79
2023/12/20 08:13:58;;;;;;;;;;;;;;;;;;4995299;28;58712;-79
2023/12/20 08:16:23;;;;;;;;;;;;;;;;;;4993720;28;58992;-79
2023/12/20 08:18:48;;;;;;;;;;;;;;;;;;4994330;28;59181;-78
2023/12/20 08:21:13;;;;;;;;;;;;;;;;;;4994626;28;60462;-78
2023/12/20 08:23:38;;;;;;;;;;;;;;;;;;4994317;28;59287;-79
2023/12/20 08:26:03;;;;;;;;;;;;;;;;;;4994639;28;58949;-78
2023/12/20 08:28:28;;;;;;;;;;;;;;;;;;4994020;28;61177;-78
2023/12/20 08:30:53;;;;;;;;;;;;;;;;;;4993806;28;58912;-78
2023/12/20 08:33:18;;;;;;;;;;;;;;;;;;4994310;28;58961;-78
2023/12/20 08:35:44;;;;;;;;;;;;;;;;;;4995137;28;60275;-78
2023/12/20 08:38:09;;;;;;;;;;;;;;;;;;4996554;28;58837;-78
2023/12/20 08:40:34;;;;;;;;;;;;;;;;;;4997964;28;59664;-78
2023/12/20 08:42:59;;;;;;;;;;;;;;;;;;4997108;28;59066;-78
2023/12/20 08:45:24;;;;;;;;;;;;;;;;;;4997722;28;58857;-78
2023/12/20 08:47:49;;;;;;;;;;;;;;;;;;4998487;28;60217;-78
2023/12/20 08:50:15;;;;;;;;;;;;;;;;;;4997134;28;59143;-78
2023/12/20 08:52:40;;;;;;;;;;;;;;;;;;4997646;28;58547;-78
2023/12/20 08:55:05;;;;;;;;;;;;;;;;;;4997825;28;60233;-78
2023/12/20 08:57:31;;;;;;;;;;;;;;;;;;4997769;28;58835;-78
2023/12/20 08:59:56;;;;;;;;;;;;;;;;;;4998263;28;60244;-79
2023/12/20 09:02:22;;;;;;;;;;;;;;;;;;4996790;28;59437;-80
2023/12/20 09:04:47;;;;;;;;;;;;;;;;;;4997337;28;59176;-78
2023/12/20 09:07:12;;;;;;;;;;;;;;;;;;4997376;28;60209;-80
2023/12/20 09:09:37;;;;;;;;;;;;;;;;;;5011742;28;60256;-80
2023/12/20 09:12:02;;;;;;;;;;;;;;;;;;4998471;28;58881;-80
2023/12/20 09:14:27;;;;;;;;;;;;;;;;;;4997070;28;60297;-80
2023/12/20 09:16:55;;;;;;;;;;;;;;;;;;4997159;28;59177;-80
2023/12/20 09:19:20;;;;;;;;;;;;;;;;;;4997176;28;60223;-80
2023/12/20 09:21:45;;;;;;;;;;;;;;;;;;4996768;28;59467;-80
2023/12/20 09:24:11;;;;;;;;;;;;;;;;;;4997699;28;58814;-79
2023/12/20 09:26:36;;;;;;;;;;;;;;;;;;4997855;28;59884;-79
2023/12/20 09:29:01;;;;;;;;;;;;;;;;;;4995706;28;59014;-79
2023/12/20 09:31:26;;;;;;;;;;;;;;;;;;4996653;28;58901;-80
2023/12/20 09:33:51;;;;;;;;;;;;;;;;;;4996849;28;60363;-79
2023/12/20 09:36:16;;;;;;;;;;;;;;;;;;4996074;28;59432;-80
2023/12/20 09:38:42;;;;;;;;;;;;;;;;;;4998300;28;58947;-80
2023/12/20 09:41:07;;;;;;;;;;;;;;;;;;4995936;28;59141;-80
2023/12/20 09:43:32;;;;;;;;;;;;;;;;;;4996764;28;58926;-80
2023/12/20 09:45:57;;;;;;;;;;;;;;;;;;4996470;28;60571;-80
2023/12/20 09:48:22;;;;;;;;;;;;;;;;;;4995278;28;58856;-80
2023/12/20 09:50:47;;;;;;;;;;;;;;;;;;4996965;28;58869;-80
2023/12/20 09:53:12;;;;;;;;;;;;;;;;;;4996022;28;59512;-80
2023/12/20 09:55:37;;;;;;;;;;;;;;;;;;4995775;28;59426;-80
2023/12/20 09:58:02;;;;;;;;;;;;;;;;;;4996870;28;58939;-80
2023/12/20 10:00:27;;;;;;;;;;;;;;;;;;4996356;28;59823;-80
2023/12/20 10:02:53;;;;;;;;;;;;;;;;;;4997307;28;58965;-80
2023/12/20 10:05:21;;;;;;;;;;;;;;;;;;4996372;28;59367;-81
2023/12/20 10:07:46;;;;;;;;;;;;;;;;;;4995649;28;59385;-80
2023/12/20 10:10:12;;;;;;;;;;;;;;;;;;4996441;28;59298;-80
2023/12/20 10:12:37;;;;;;;;;;;;;;;;;;4996375;28;59469;-80
2023/12/20 10:15:02;;;;;;;;;;;;;;;;;;4996670;28;59571;-80
2023/12/20 10:17:29;;;;;;;;;;;;;;;;;;4996536;28;59035;-80
2023/12/20 10:19:54;;;;;;;;;;;;;;;;;;4996551;28;60266;-80
2023/12/20 10:22:19;;;;;;;;;;;;;;;;;;4996550;28;60164;-80
2023/12/20 10:24:44;;;;;;;;;;;;;;;;;;4996681;28;59261;-80
2023/12/20 10:27:09;;;;;;;;;;;;;;;;;;4995723;28;59278;-80
2023/12/20 10:29:34;;;;;;;;;;;;;;;;;;4996515;28;58929;-80
2023/12/20 10:31:59;;;;;;;;;;;;;;;;;;4996068;28;60427;-80
2023/12/20 10:34:24;;;;;;;;;;;;;;;;;;4995369;28;58956;-81
2023/12/20 10:36:50;;;;;;;;;;;;;;;;;;4996464;28;58870;-81
2023/12/20 10:39:15;;;;;;;;;;;;;;;;;;4996104;28;61124;-79
2023/12/20 10:41:41;;;;;;;;;;;;;;;;;;4995963;28;59316;-80
2023/12/20 10:44:06;;;;;;;;;;;;;;;;;;4997137;28;58838;-79
2023/12/20 10:46:34;;;;;;;;;;;;;;;;;;4995199;28;59606;-80
2023/12/20 10:48:59;;;;;;;;;;;;;;;;;;4996139;28;59030;-80
2023/12/20 10:51:26;;;;;;;;;;;;;;;;;;5010929;28;61702;-80
2023/12/20 10:53:51;;;;;;;;;;;;;;;;;;4995859;28;59310;-80
2023/12/20 10:56:16;;;;;;;;;;;;;;;;;;4995602;28;59255;-80
2023/12/20 10:58:43;;;;;;;;;;;;;;;;;;4995647;28;61147;-80
2023/12/20 11:01:08;;;;;;;;;;;;;;;;;;4994476;28;59352;-80
2023/12/20 11:03:33;;;;;;;;;;;;;;;;;;4995858;28;59100;-80
2023/12/20 11:05:58;;;;;;;;;;;;;;;;;;4996476;28;59118;-80
2023/12/20 11:08:23;;;;;;;;;;;;;;;;;;4995336;28;58936;-80
2023/12/20 11:10:50;;;;;;;;;;;;;;;;;;4995221;28;61177;-80
2023/12/20 11:13:15;;;;;;;;;;;;;;;;;;4994559;28;59808;-80
2023/12/20 11:15:40;;;;;;;;;;;;;;;;;;4995787;28;59290;-80
2023/12/20 11:18:06;;;;;;;;;;;;;;;;;;4996078;28;59796;-80
2023/12/20 11:20:31;;;;;;;;;;;;;;;;;;4994806;28;59183;-80
2023/12/20 11:22:56;;;;;;;;;;;;;;;;;;4995167;28;58848;-80
2023/12/20 11:25:21;;;;;;;;;;;;;;;;;;4995322;28;60866;-79
2023/12/20 11:27:46;;;;;;;;;;;;;;;;;;4995275;28;59096;-80
2023/12/20 11:30:12;;;;;;;;;;;;;;;;;;4995270;28;60279;-80
2023/12/20 11:32:37;;;;;;;;;;;;;;;;;;4994908;28;58934;-80
2023/12/20 11:35:02;;;;;;;;;;;;;;;;;;4995002;28;59240;-80
2023/12/20 11:37:27;;;;;;;;;;;;;;;;;;4994839;28;60354;-80
2023/12/20 11:39:52;;;;;;;;;;;;;;;;;;4994269;28;58880;-80
2023/12/20 11:42:18;;;;;;;;;;;;;;;;;;4994916;28;58823;-80
2023/12/20 11:44:44;;;;;;;;;;;;;;;;;;4995898;28;60313;-80
2023/12/20 11:47:12;;;;;;;;;;;;;;;;;;4995143;28;58984;-79
2023/12/20 11:49:37;;;;;;;;;;;;;;;;;;4994991;28;60440;-76
2023/12/20 11:52:02;;;;;;;;;;;;;;;;;;4993850;28;58918;-75
2023/12/20 11:54:27;;;;;;;;;;;;;;;;;;4994728;28;58897;-77
2023/12/20 11:56:52;;;;;;;;;;;;;;;;;;4995575;28;59534;-76
2023/12/20 11:59:17;;;;;;;;;;;;;;;;;;4993826;28;58901;-76
2023/12/20 12:01:42;;;;;;;;;;;;;;;;;;4994879;28;58927;-76
2023/12/20 12:04:07;;;;;;;;;;;;;;;;;;4994548;28;60209;-76
2023/12/20 12:06:32;;;;;;;;;;;;;;;;;;4993605;28;59332;-76
2023/12/20 12:08:57;;;;;;;;;;;;;;;;;;4996152;28;58896;-75
2023/12/20 12:11:22;;;;;;;;;;;;;;;;;;4993241;28;59215;-76
2023/12/20 12:13:47;;;;;;;;;;;;;;;;;;4993904;28;59136;-76
2023/12/20 12:16:12;;;;;;;;;;;;;;;;;;4994508;28;59306;-77
2023/12/20 12:18:38;;;;;;;;;;;;;;;;;;4993579;28;58931;-75
2023/12/20 12:21:03;;;;;;;;;;;;;;;;;;4995383;28;59088;-75
2023/12/20 12:23:28;;;;;;;;;;;;;;;;;;4994026;28;61165;-76
2023/12/20 12:25:55;;;;;;;;;;;;;;;;;;4993389;28;59221;-75
2023/12/20 12:28:20;;;;;;;;;;;;;;;;;;4993836;28;58878;-76
2023/12/20 12:30:45;;;;;;;;;;;;;;;;;;4994453;28;60434;-76
2023/12/20 12:33:10;;;;;;;;;;;;;;;;;;4994626;28;58880;-76
2023/12/20 12:35:35;;;;;;;;;;;;;;;;;;4994862;28;60443;-76
2023/12/20 12:38:02;;;;;;;;;;;;;;;;;;4993673;28;59030;-75
2023/12/20 12:40:28;;;;;;;;;;;;;;;;;;4993818;28;59351;-76
2023/12/20 12:42:53;;;;;;;;;;;;;;;;;;4994046;28;60062;-76
2023/12/20 12:45:18;;;;;;;;;;;;;;;;;;4993260;28;59791;-76
2023/12/20 12:47:43;;;;;;;;;;;;;;;;;;4995116;28;59038;-75
2023/12/20 12:50:08;;;;;;;;;;;;;;;;;;4993839;28;61188;-76
2023/12/20 12:52:33;;;;;;;;;;;;;;;;;;4993965;28;59060;-76
2023/12/20 12:54:58;;;;;;;;;;;;;;;;;;4994132;28;61122;-76
2023/12/20 12:57:23;;;;;;;;;;;;;;;;;;4993324;28;59184;-75
2023/12/20 12:59:49;;;;;;;;;;;;;;;;;;4994669;28;58853;-75
2023/12/20 13:02:14;;;;;;;;;;;;;;;;;;4994129;28;60498;-75
2023/12/20 13:04:39;;;;;;;;;;;;;;;;;;4993425;28;58993;-75
2023/12/20 13:07:04;;;;;;;;;;;;;;;;;;4994109;28;58779;-76
2023/12/20 13:09:29;;;;;;;;;;;;;;;;;;4993936;28;60219;-75
2023/12/20 13:11:54;;;;;;;;;;;;;;;;;;4993624;28;59334;-75
2023/12/20 13:14:19;;;;;;;;;;;;;;;;;;4994666;28;59321;-75
2023/12/20 13:16:45;;;;;;;;;;;;;;;;;;4993037;28;59401;-76
2023/12/20 13:19:10;;;;;;;;;;;;;;;;;;4993801;28;58950;-76
2023/12/20 13:21:35;;;;;;;;;;;;;;;;;;4994133;28;59201;-76
2023/12/20 13:24:00;;;;;;;;;;;;;;;;;;4995686;28;59356;-76
2023/12/20 13:26:25;;;;;;;;;;;;;;;;;;4997105;28;58763;-76
2023/12/20 13:28:50;;;;;;;;;;;;;;;;;;4996410;28;61241;-77
2023/12/20 13:31:15;;;;;;;;;;;;;;;;;;4996225;28;58925;-75
2023/12/20 13:33:41;;;;;;;;;;;;;;;;;;4997722;28;58908;-76
2023/12/20 13:36:06;;;;;;;;;;;;;;;;;;4997051;28;59408;-76
2023/12/20 13:38:31;;;;;;;;;;;;;;;;;;4997251;28;58902;-77
2023/12/20 13:40:58;;;;;;;;;;;;;;;;;;4996925;28;60163;-75
2023/12/20 13:43:24;;;;;;;;;;;;;;;;;;4995842;28;59914;-76
2023/12/20 13:45:49;;;;;;;;;;;;;;;;;;4996734;28;59287;-75
2023/12/20 13:48:14;;;;;;;;;;;;;;;;;;4996926;28;60415;-75
2023/12/20 13:50:39;;;;;;;;;;;;;;;;;;4996848;28;59014;-75
2023/12/20 13:53:04;;;;;;;;;;;;;;;;;;4997112;28;58848;-77
2023/12/20 13:55:30;;;;;;;;;;;;;;;;;;4997182;28;59323;-75
2023/12/20 13:57:55;;;;;;;;;;;;;;;;;;4997008;28;58999;-76
2023/12/20 14:00:20;;;;;;;;;;;;;;;;;;4996642;28;60399;-76
2023/12/20 14:02:46;;;;;;;;;;;;;;;;;;4996798;28;58909;-76
2023/12/20 14:05:11;;;;;;;;;;;;;;;;;;4996687;28;58541;-75
2023/12/20 14:07:36;;;;;;;;;;;;;;;;;;4996702;28;60188;-75
2023/12/20 14:10:01;;;;;;;;;;;;;;;;;;4996105;28;59418;-76
2023/12/20 14:12:26;;;;;;;;;;;;;;;;;;4996357;28;58801;-78
2023/12/20 14:14:51;;;;;;;;;;;;;;;;;;4997324;28;60577;-76
2023/12/20 14:17:16;;;;;;;;;;;;;;;;;;4996487;28;59891;-76
2023/12/20 14:19:41;;;;;;;;;;;;;;;;;;4996192;28;60237;-76
2023/12/20 14:22:06;;;;;;;;;;;;;;;;;;4995633;28;59951;-76
2023/12/20 14:24:32;;;;;;;;;;;;;;;;;;4996401;28;58901;-76
2023/12/20 14:26:58;;;;;;;;;;;;;;;;;;4997154;28;60751;-75
2023/12/20 14:29:23;;;;;;;;;;;;;;;;;;4995146;28;58885;-75
2023/12/20 14:31:49;;;;;;;;;;;;;;;;;;4996218;28;58369;-76
2023/12/20 14:34:14;;;;;;;;;;;;;;;;;;4996170;28;60383;-75
2023/12/20 14:36:40;;;;;;;;;;;;;;;;;;4995067;28;59085;-75
2023/12/20 14:39:05;;;;;;;;;;;;;;;;;;4997927;28;58988;-75
2023/12/20 14:41:30;;;;;;;;;;;;;;;;;;4995300;28;58979;-75
2023/12/20 14:43:55;;;;;;;;;;;;;;;;;;4996042;28;58834;-76
2023/12/20 14:46:20;;;;;;;;;;;;;;;;;;4995871;28;60160;-75
2023/12/20 14:48:46;;;;;;;;;;;;;;;;;;4995058;28;59857;-75
2023/12/20 14:51:12;;;;;;;;;;;;;;;;;;4995913;28;58876;-76
2023/12/20 14:53:38;;;;;;;;;;;;;;;;;;4996436;28;60178;-75
2023/12/20 14:56:03;;;;;;;;;;;;;;;;;;4995123;28;59015;-79
2023/12/20 14:58:29;;;;;;;;;;;;;;;;;;4995674;28;58941;-82
2023/12/20 15:00:55;;;;;;;;;;;;;;;;;;4995915;28;60751;-84
2023/12/20 15:03:21;;;;;;;;;;;;;;;;;;4995735;28;58785;-79
2023/12/20 15:05:47;;;;;;;;;;;;;;;;;;4996320;28;61091;-77
2023/12/20 15:08:12;;;;;;;;;;;;;;;;;;4995435;28;59283;-76
2023/12/20 15:10:37;;;;;;;;;;;;;;;;;;4995500;28;58959;-77
2023/12/20 15:13:02;;;;;;;;;;;;;;;;;;4995479;28;59292;-77
2023/12/20 15:15:28;;;;;;;;;;;;;;;;;;4994811;28;58849;-76
2023/12/20 15:17:54;;;;;;;;;;;;;;;;;;4996250;28;58762;-75
2023/12/20 15:20:19;;;;;;;;;;;;;;;;;;4995465;28;59599;-75
2023/12/20 15:22:45;;;;;;;;;;;;;;;;;;4995466;28;59509;-75
2023/12/20 15:25:10;;;;;;;;;;;;;;;;;;4995250;28;60491;-75
2023/12/20 15:27:37;;;;;;;;;;;;;;;;;;4994831;28;58897;-75
2023/12/20 15:30:03;;;;;;;;;;;;;;;;;;4995634;28;58860;-76
2023/12/20 15:32:28;;;;;;;;;;;;;;;;;;5009882;28;60607;-75
2023/12/20 15:34:53;;;;;;;;;;;;;;;;;;4994593;28;59299;-83
2023/12/20 15:37:18;;;;;;;;;;;;;;;;;;4995214;28;59195;-79
2023/12/20 15:39:43;;;;;;;;;;;;;;;;;;4995180;28;58826;-79
2023/12/20 15:42:08;;;;;;;;;;;;;;;;;;4996090;28;59356;-76
2023/12/20 15:44:33;;;;;;;;;;;;;;;;;;4994964;28;62106;-76
2023/12/20 15:46:58;;;;;;;;;;;;;;;;;;4993377;28;59421;-76
2023/12/20 15:49:23;;;;;;;;;;;;;;;;;;4997997;28;58856;-78
2023/12/20 15:51:49;;;;;;;;;;;;;;;;;;4994626;28;60279;-78
2023/12/20 15:54:14;;;;;;;;;;;;;;;;;;4994211;28;59404;-76
2023/12/20 15:56:41;;;;;;;;;;;;;;;;;;4995526;28;58901;-77
2023/12/20 15:59:06;;;;;;;;;;;;;;;;;;4994811;28;60248;-79
2023/12/20 16:01:31;;;;;;;;;;;;;;;;;;4994227;28;58828;-78
2023/12/20 16:03:56;;;;;;;;;;;;;;;;;;4995544;28;58906;-78
2023/12/20 16:06:21;;;;;;;;;;;;;;;;;;4993920;28;59221;-80
2023/12/20 16:08:46;;;;;;;;;;;;;;;;;;4995543;28;58267;-76
2023/12/20 16:11:11;;;;;;;;;;;;;;;;;;4994554;28;60157;-77
2023/12/20 16:13:36;;;;;;;;;;;;;;;;;;4993709;28;58951;-78
2023/12/20 16:16:02;;;;;;;;;;;;;;;;;;4994487;28;59199;-79
2023/12/20 16:18:28;;;;;;;;;;;;;;;;;;4994533;28;60331;-78
2023/12/20 16:20:53;;;;;;;;;;;;;;;;;;4994818;28;59510;-83
2023/12/20 16:23:18;;;;;;;;;;;;;;;;;;4994511;28;59211;-77
2023/12/20 16:25:43;;;;;;;;;;;;;;;;;;4994273;28;60258;-80
2023/12/20 16:28:08;;;;;;;;;;;;;;;;;;4994396;28;59104;-79
2023/12/20 16:30:33;;;;;;;;;;;;;;;;;;4994063;28;61238;-78